Dearing, Georgia
Current Conditions -  °F | °C
As of 2:15 PM on Friday 21 Nov 2014 (Local Time) from KHQU Reporting Station
Clear Clear  
Wind Chill: 66°   Ceiling: Unl
Heat Index: 66°   Visibility: 10mi
Dew Point: 37°   Wind: 6mph
Humidity: 35%   Direction: 350°N
Pressure: 30.39"   Gusts: NA
Location:  33.41°N, 82.39°W
Report Text: KHQU 211915Z AUTO 35005KT 10SM CLR 19/03 A3039 RMK AO1 T01900030
Loading
Personal Weather Stations






























Interactive Weather Map New forecast layout! Learn more

10-Day Weather Forecast

Advertisements
Track Severe Weather on mobile